createdAt,value
2018-04-01T00:00:35.311Z,2.90
2018-04-01T00:03:02.212Z,3.90
2018-04-01T00:05:29.116Z,3.07
2018-04-01T00:07:56.033Z,5.17
2018-04-01T00:10:22.914Z,3.43
2018-04-01T00:12:50.004Z,3.70
2018-04-01T00:15:16.932Z,5.80
2018-04-01T00:17:43.847Z,6.40
2018-04-01T00:20:10.774Z,7.00
2018-04-01T00:22:37.709Z,8.43
2018-04-01T00:25:05.098Z,5.30
2018-04-01T00:27:31.987Z,4.10
2018-04-01T00:29:58.872Z,6.07
2018-04-01T00:32:25.805Z,4.57
2018-04-01T00:34:52.710Z,4.13
2018-04-01T00:37:19.614Z,2.97
2018-04-01T00:39:46.657Z,4.67
2018-04-01T00:42:13.542Z,4.17
2018-04-01T00:44:40.507Z,4.23
2018-04-01T00:47:07.392Z,4.23
2018-04-01T00:49:34.336Z,4.20
2018-04-01T00:52:01.993Z,8.17
2018-04-01T00:57:02.173Z,4.20
2018-04-01T00:59:29.063Z,3.50
2018-04-01T01:01:55.971Z,5.63
2018-04-01T01:04:23.002Z,4.37
2018-04-01T01:06:49.883Z,3.20
2018-04-01T01:09:16.791Z,3.70
2018-04-01T01:11:43.676Z,4.30
2018-04-01T01:14:11.324Z,3.73
2018-04-01T01:16:38.246Z,3.50
2018-04-01T01:19:05.203Z,4.40
2018-04-01T01:21:32.094Z,3.90
2018-04-01T01:23:59.035Z,2.63
2018-04-01T01:26:26.137Z,3.07
2018-04-01T01:28:53.017Z,3.87
2018-04-01T01:31:19.996Z,2.70
2018-04-01T01:33:46.898Z,4.40
2018-04-01T01:36:13.791Z,3.30
2018-04-01T01:38:41.305Z,6.20
2018-04-01T01:41:08.866Z,3.20
2018-04-01T01:43:36.355Z,3.47
2018-04-01T01:46:03.265Z,4.03
2018-04-01T01:48:30.147Z,4.20
2018-04-01T01:50:57.099Z,3.43
2018-04-01T01:53:23.988Z,3.93
2018-04-01T01:55:50.995Z,4.13
2018-04-01T01:58:17.883Z,4.23
2018-04-01T02:00:44.832Z,4.53
2018-04-01T02:03:11.713Z,4.60
2018-04-01T02:05:38.607Z,6.47
2018-04-01T02:08:05.527Z,8.10
2018-04-01T02:10:32.413Z,6.30
2018-04-01T02:12:59.529Z,5.20
2018-04-01T02:15:26.410Z,5.30
2018-04-01T02:17:53.325Z,6.07
2018-04-01T02:20:20.312Z,7.07
2018-04-01T02:22:47.212Z,6.77
2018-04-01T02:25:14.108Z,6.43
2018-04-01T02:27:41.009Z,6.07
2018-04-01T02:30:07.882Z,8.30
2018-04-01T02:32:34.787Z,6.10
2018-04-01T02:35:01.699Z,5.93
2018-04-01T02:37:28.599Z,6.63
2018-04-01T02:39:55.508Z,7.13
2018-04-01T02:42:22.393Z,5.37
2018-04-01T02:44:49.309Z,6.07
2018-04-01T02:47:16.209Z,7.13
2018-04-01T02:49:43.172Z,6.30
2018-04-01T02:52:10.069Z,7.57
2018-04-01T02:54:36.979Z,8.47
2018-04-01T02:57:03.879Z,6.10
2018-04-01T02:59:30.972Z,6.87
2018-04-01T03:01:57.859Z,6.37
2018-04-01T03:04:24.801Z,7.63
2018-04-01T03:06:51.796Z,5.67
2018-04-01T03:09:18.738Z,7.07
2018-04-01T03:11:46.327Z,7.57
2018-04-01T03:14:13.235Z,6.20
2018-04-01T03:16:40.134Z,5.20
2018-04-01T03:19:07.010Z,7.63
2018-04-01T03:21:34.146Z,5.87
2018-04-01T03:24:01.306Z,6.40
2018-04-01T03:26:28.187Z,5.20
2018-04-01T03:28:55.103Z,6.17
2018-04-01T03:31:22.015Z,5.57
2018-04-01T03:33:49.526Z,5.13
2018-04-01T03:36:16.448Z,7.70
2018-04-01T03:38:43.340Z,4.83
2018-04-01T03:41:10.322Z,4.80
2018-04-01T03:43:37.963Z,4.53
2018-04-01T03:46:04.939Z,4.70
2018-04-01T03:48:32.008Z,4.73
2018-04-01T03:50:58.949Z,5.07
2018-04-01T03:53:25.851Z,6.33
2018-04-01T03:55:52.830Z,4.80
2018-04-01T03:58:19.733Z,4.97
2018-04-01T04:00:46.618Z,4.20
2018-04-01T04:03:13.536Z,5.73
2018-04-01T04:05:40.429Z,4.70
2018-04-01T04:08:08.001Z,4.37
2018-04-01T04:10:34.895Z,5.03
2018-04-01T04:13:01.817Z,4.57
2018-04-01T04:15:28.698Z,4.83
2018-04-01T04:17:55.603Z,5.20
2018-04-01T04:20:22.500Z,4.50
2018-04-01T04:22:49.401Z,3.67
2018-04-01T04:25:16.667Z,4.03
2018-04-01T04:27:43.695Z,3.97
2018-04-01T04:30:10.600Z,5.00
2018-04-01T04:32:37.589Z,6.17
2018-04-01T04:35:04.503Z,4.40
2018-04-01T04:37:31.392Z,6.23
2018-04-01T04:39:58.329Z,5.40
2018-04-01T04:42:25.246Z,6.10
2018-04-01T04:44:52.165Z,3.27
2018-04-01T04:47:19.680Z,2.80
2018-04-01T04:49:46.558Z,2.70
2018-04-01T04:52:13.507Z,2.57
2018-04-01T04:54:40.411Z,2.60
2018-04-01T04:57:07.304Z,3.03
2018-04-01T04:59:34.195Z,5.00
2018-04-01T05:02:01.104Z,5.00
2018-04-01T05:04:27.991Z,2.47
2018-04-01T05:06:54.973Z,4.10
2018-04-01T05:09:21.927Z,2.50
2018-04-01T05:11:48.835Z,4.20
2018-04-01T05:14:16.631Z,3.07
2018-04-01T05:16:43.523Z,3.30
2018-04-01T05:19:10.445Z,2.97
2018-04-01T05:21:37.333Z,2.50
2018-04-01T05:24:04.225Z,3.27
2018-04-01T05:26:31.126Z,3.20
2018-04-01T05:28:58.026Z,4.87
2018-04-01T05:31:24.946Z,6.20
2018-04-01T05:33:51.842Z,4.27
2018-04-01T05:36:18.759Z,5.50
2018-04-01T05:38:45.636Z,5.60
2018-04-01T05:41:12.552Z,5.53
2018-04-01T05:43:39.447Z,6.87
2018-04-01T05:46:06.363Z,5.40
2018-04-01T05:48:33.981Z,4.53
2018-04-01T05:51:00.914Z,4.43
2018-04-01T05:53:27.849Z,5.40
2018-04-01T05:55:54.752Z,4.80
2018-04-01T05:58:21.633Z,4.80
2018-04-01T06:00:48.727Z,4.00
2018-04-01T06:03:15.987Z,6.10
2018-04-01T06:05:42.886Z,5.03
2018-04-01T06:08:09.780Z,6.77
2018-04-01T06:10:37.292Z,5.03
2018-04-01T06:13:04.205Z,4.33
2018-04-01T06:15:31.250Z,4.63
2018-04-01T06:17:58.124Z,4.50
2018-04-01T06:20:25.047Z,5.20
2018-04-01T06:22:52.027Z,4.27
2018-04-01T06:25:18.936Z,3.60
2018-04-01T06:27:45.861Z,3.77
2018-04-01T06:30:12.770Z,4.13
2018-04-01T06:32:39.691Z,5.37
2018-04-01T06:35:07.264Z,4.30
2018-04-01T06:37:34.213Z,5.00
2018-04-01T06:40:01.098Z,3.80
2018-04-01T06:42:28.012Z,4.23
2018-04-01T06:44:54.892Z,3.60
2018-04-01T06:47:21.781Z,4.00
2018-04-01T06:49:48.692Z,4.33
2018-04-01T06:52:15.588Z,4.83
2018-04-01T06:54:43.087Z,4.57
2018-04-01T06:57:10.630Z,5.10
2018-04-01T06:59:37.528Z,4.53
2018-04-01T07:02:04.451Z,4.37
2018-04-01T07:04:31.326Z,4.73
2018-04-01T07:06:58.219Z,4.10
2018-04-01T07:09:25.766Z,3.60
2018-04-01T07:11:52.674Z,4.80
2018-04-01T07:14:19.579Z,3.80
2018-04-01T07:16:46.461Z,3.63
2018-04-01T07:19:13.709Z,4.93
2018-04-01T07:21:40.622Z,7.93
2018-04-01T07:24:09.589Z,4.67
2018-04-01T07:26:36.528Z,4.00
2018-04-01T07:29:03.891Z,3.57
2018-04-01T07:31:30.907Z,3.73
2018-04-01T07:33:57.905Z,4.87
2018-04-01T07:36:24.965Z,3.53
2018-04-01T07:38:51.852Z,3.37
2018-04-01T07:41:18.840Z,4.70
2018-04-01T07:43:46.216Z,3.83
2018-04-01T07:46:13.773Z,7.10
2018-04-01T07:48:41.277Z,6.07
2018-04-01T07:51:08.825Z,4.93
2018-04-01T07:53:35.786Z,5.63
2018-04-01T07:56:02.866Z,4.50
2018-04-01T07:58:29.824Z,3.72
2018-04-01T08:00:56.865Z,4.57
2018-04-01T08:03:23.851Z,4.90
2018-04-01T08:05:51.121Z,4.50
2018-04-01T08:08:18.245Z,5.63
2018-04-01T08:10:45.325Z,5.00
2018-04-01T08:13:12.261Z,6.00
2018-04-01T08:15:39.145Z,6.80
2018-04-01T08:18:06.208Z,4.85
2018-04-01T08:20:33.103Z,3.93
2018-04-01T08:22:59.997Z,3.97
2018-04-01T08:25:26.918Z,2.97
2018-04-01T08:27:53.836Z,3.30
2018-04-01T08:30:20.770Z,3.27
2018-04-01T08:32:47.675Z,3.80
2018-04-01T08:35:14.609Z,3.27
2018-04-01T08:37:41.539Z,4.10
2018-04-01T08:40:08.680Z,3.53
2018-04-01T08:42:35.534Z,3.30
2018-04-01T08:45:02.452Z,3.67
2018-04-01T08:47:29.373Z,4.03
2018-04-01T08:49:56.254Z,5.07
2018-04-01T08:52:23.148Z,4.33
2018-04-01T08:54:50.075Z,3.73
2018-04-01T08:57:17.342Z,3.57
2018-04-01T08:59:44.320Z,3.10
2018-04-01T09:02:11.219Z,2.90
2018-04-01T09:04:38.112Z,2.83
2018-04-01T09:07:05.052Z,5.97
2018-04-01T09:09:32.630Z,4.73
2018-04-01T09:11:59.539Z,4.40
2018-04-01T09:14:26.433Z,2.97
2018-04-01T09:16:53.561Z,3.63
2018-04-01T09:19:20.442Z,3.10
2018-04-01T09:21:47.356Z,4.00
2018-04-01T09:24:14.251Z,4.70
2018-04-01T09:26:41.240Z,4.10
2018-04-01T09:29:08.152Z,3.60
2018-04-01T09:31:35.026Z,3.90
2018-04-01T09:34:01.934Z,2.90
2018-04-01T09:36:28.863Z,2.60
2018-04-01T09:38:56.429Z,2.30
2018-04-01T09:41:23.320Z,2.50
2018-04-01T09:43:51.835Z,3.10
2018-04-01T09:46:18.761Z,2.70
2018-04-01T09:48:45.966Z,1.90
2018-04-01T09:51:12.895Z,2.33
2018-04-01T09:53:39.831Z,3.13
2018-04-01T09:56:06.728Z,3.63
2018-04-01T09:58:34.252Z,3.00
2018-04-01T10:01:02.798Z,2.90
2018-04-01T10:03:30.237Z,4.03
2018-04-01T10:05:57.656Z,3.33
2018-04-01T10:08:25.088Z,4.33
2018-04-01T10:10:52.512Z,4.43
2018-04-01T10:13:20.018Z,3.22
2018-04-01T10:15:47.507Z,2.90
2018-04-01T10:18:15.005Z,3.30
2018-04-01T10:20:42.489Z,2.83
2018-04-01T10:23:09.912Z,2.67
2018-04-01T10:25:37.363Z,3.07
2018-04-01T10:28:04.796Z,4.23
2018-04-01T10:30:32.960Z,2.60
2018-04-01T10:33:00.417Z,2.63
2018-04-01T10:35:27.944Z,3.23
2018-04-01T10:37:55.407Z,2.60
2018-04-01T10:40:22.867Z,2.57
2018-04-01T10:42:50.328Z,2.07
2018-04-01T10:45:17.787Z,2.93
2018-04-01T10:47:45.245Z,2.43
2018-04-01T10:50:12.699Z,2.27
2018-04-01T10:52:40.180Z,3.37
2018-04-01T10:55:07.072Z,3.23
2018-04-01T10:57:34.144Z,3.20
2018-04-01T11:00:01.071Z,2.53
2018-04-01T11:02:27.976Z,3.93
2018-04-01T11:04:54.925Z,2.73
2018-04-01T11:07:21.837Z,2.53
2018-04-01T11:09:48.746Z,2.70
2018-04-01T11:12:16.392Z,2.80
2018-04-01T11:14:43.343Z,2.93
2018-04-01T11:17:10.245Z,2.87
2018-04-01T11:19:37.156Z,2.60
2018-04-01T11:22:04.179Z,8.57
2018-04-01T11:24:31.485Z,3.13
2018-04-01T11:26:58.434Z,3.97
2018-04-01T11:29:25.352Z,29.10
2018-04-01T11:31:52.230Z,2.00
2018-04-01T11:34:19.154Z,4.40
2018-04-01T11:36:46.128Z,2.40
2018-04-01T11:39:13.005Z,2.20
2018-04-01T11:41:40.027Z,2.20
2018-04-01T11:44:06.980Z,2.33
2018-04-01T11:46:35.275Z,2.93
2018-04-01T11:49:02.208Z,4.23
2018-04-01T11:51:29.185Z,3.30
2018-04-01T11:53:56.195Z,3.70
2018-04-01T11:56:23.115Z,3.00
2018-04-01T11:58:50.791Z,3.83
2018-04-01T12:01:17.724Z,3.70
2018-04-01T12:03:44.794Z,3.97
2018-04-01T12:06:11.746Z,4.90
2018-04-01T12:08:38.680Z,5.73
2018-04-01T12:11:05.785Z,5.93
2018-04-01T12:13:32.803Z,6.07
2018-04-01T12:15:59.849Z,5.70
2018-04-01T12:18:27.464Z,5.87
2018-04-01T12:20:54.406Z,5.67
2018-04-01T12:23:21.509Z,8.90
2018-04-01T12:25:48.418Z,8.30
2018-04-01T12:28:15.694Z,12.03
2018-04-01T12:30:42.622Z,10.00
2018-04-01T12:33:10.201Z,13.50
2018-04-01T12:35:37.746Z,7.50
2018-04-01T12:38:04.690Z,5.23
2018-04-01T12:40:31.780Z,8.30
2018-04-01T12:42:58.676Z,6.43
2018-04-01T12:45:25.641Z,6.30
2018-04-01T12:47:52.622Z,5.27
2018-04-01T12:50:20.361Z,6.50
2018-04-01T12:52:47.529Z,5.70
2018-04-01T12:55:14.424Z,6.70
2018-04-01T12:57:41.349Z,5.33
2018-04-01T13:00:08.490Z,5.13
2018-04-01T13:02:35.446Z,2.63
2018-04-01T13:05:02.954Z,4.10
2018-04-01T13:07:30.200Z,3.93
2018-04-01T13:09:57.097Z,4.40
2018-04-01T13:12:24.038Z,6.33
2018-04-01T13:14:50.976Z,5.80
2018-04-01T13:17:18.841Z,7.63
2018-04-01T13:19:46.047Z,7.93
2018-04-01T13:22:13.067Z,9.17
2018-04-01T13:24:39.984Z,7.10
2018-04-01T13:27:06.951Z,6.73
2018-04-01T13:29:34.366Z,5.90
2018-04-01T13:32:01.308Z,7.20
2018-04-01T13:34:28.230Z,5.00
2018-04-01T13:36:55.223Z,6.27
2018-04-01T13:39:22.148Z,4.40
2018-04-01T13:41:49.040Z,5.80
2018-04-01T13:44:15.978Z,5.07
2018-04-01T13:46:42.951Z,4.80
2018-04-01T13:49:09.876Z,6.40
2018-04-01T13:51:36.865Z,4.50
2018-04-01T13:54:03.890Z,4.43
2018-04-01T13:56:31.288Z,4.40
2018-04-01T13:58:58.643Z,4.43
2018-04-01T14:01:25.749Z,5.10
2018-04-01T14:03:52.667Z,5.50
2018-04-01T14:06:19.578Z,6.17
2018-04-01T14:08:46.562Z,5.50
2018-04-01T14:11:13.479Z,5.90
2018-04-01T14:13:40.441Z,6.47
2018-04-01T14:16:07.405Z,5.20
2018-04-01T14:18:34.986Z,5.10
2018-04-01T14:21:01.900Z,5.33
2018-04-01T14:23:28.812Z,7.20
2018-04-01T14:25:55.961Z,6.47
2018-04-01T14:28:22.854Z,4.97
2018-04-01T14:30:49.870Z,6.00
2018-04-01T14:33:16.781Z,5.17
2018-04-01T14:35:44.185Z,6.53
2018-04-01T14:38:11.111Z,7.63
2018-04-01T14:40:38.683Z,6.03
2018-04-01T14:43:05.629Z,8.43
2018-04-01T14:45:32.649Z,7.20
2018-04-01T14:48:00.203Z,6.37
2018-04-01T14:50:27.128Z,5.67
2018-04-01T14:52:54.082Z,6.33
2018-04-01T14:55:20.987Z,6.23
2018-04-01T14:57:47.915Z,5.70
2018-04-01T15:00:14.830Z,8.40
2018-04-01T15:02:41.750Z,9.20
2018-04-01T15:05:08.648Z,6.10
2018-04-01T15:07:35.829Z,5.13
2018-04-01T15:10:02.866Z,5.60
2018-04-01T15:12:29.779Z,4.50
2018-04-01T15:14:56.725Z,4.17
2018-04-01T15:17:23.655Z,4.00
2018-04-01T15:19:50.627Z,4.30
2018-04-01T15:22:17.560Z,6.70
2018-04-01T15:24:44.886Z,6.13
2018-04-01T15:27:11.832Z,4.70
2018-04-01T15:29:38.996Z,4.20
2018-04-01T15:32:06.061Z,4.60
2018-04-01T15:34:32.940Z,5.00
2018-04-01T15:37:01.655Z,4.03
2018-04-01T15:39:28.544Z,5.50
2018-04-01T15:41:55.464Z,5.90
2018-04-01T15:44:22.351Z,6.50
2018-04-01T15:46:49.642Z,6.60
2018-04-01T15:49:16.622Z,5.80
2018-04-01T15:51:43.518Z,7.50
2018-04-01T15:54:11.320Z,5.93
2018-04-01T15:56:38.232Z,4.80
2018-04-01T15:59:05.150Z,5.07
2018-04-01T16:01:32.062Z,8.13
2018-04-01T16:03:59.212Z,7.77
2018-04-01T16:06:26.116Z,7.00
2018-04-01T16:08:53.052Z,7.90
2018-04-01T16:11:19.970Z,7.73
2018-04-01T16:13:46.902Z,10.67
2018-04-01T16:16:13.857Z,5.30
2018-04-01T16:18:40.739Z,8.27
2018-04-01T16:21:07.689Z,6.83
2018-04-01T16:23:34.645Z,9.73
2018-04-01T16:26:01.554Z,7.87
2018-04-01T16:28:28.506Z,6.43
2018-04-01T16:30:55.507Z,9.30
2018-04-01T16:33:22.416Z,5.83
2018-04-01T16:35:49.334Z,6.97
2018-04-01T16:38:16.261Z,7.90
2018-04-01T16:40:43.136Z,7.07
2018-04-01T16:43:10.051Z,6.13
2018-04-01T16:45:36.964Z,7.37
2018-04-01T16:48:03.888Z,7.97
2018-04-01T16:50:30.828Z,7.50
2018-04-01T16:52:57.843Z,9.07
2018-04-01T16:55:24.771Z,8.17
2018-04-01T16:57:51.876Z,8.50
2018-04-01T17:00:18.880Z,8.73
2018-04-01T17:02:45.788Z,7.50
2018-04-01T17:05:13.597Z,6.70
2018-04-01T17:07:40.574Z,6.90
2018-04-01T17:10:07.521Z,9.27
2018-04-01T17:12:34.444Z,8.20
2018-04-01T17:15:01.412Z,6.93
2018-04-01T17:17:28.354Z,9.27
2018-04-01T17:19:55.262Z,7.40
2018-04-01T17:22:22.536Z,7.73
2018-04-01T17:24:49.424Z,8.20
2018-04-01T17:27:16.459Z,7.17
2018-04-01T17:29:43.355Z,8.33
2018-04-01T17:32:10.326Z,6.50
2018-04-01T17:34:37.249Z,5.40
2018-04-01T17:37:04.207Z,10.00
2018-04-01T17:42:04.284Z,16.53
2018-04-01T17:44:31.198Z,8.67
2018-04-01T17:46:58.451Z,7.70
2018-04-01T17:49:25.392Z,7.00
2018-04-01T17:51:52.290Z,7.97
2018-04-01T17:54:19.171Z,7.90
2018-04-01T17:56:46.145Z,8.27
2018-04-01T17:59:13.146Z,8.20
2018-04-01T18:01:40.054Z,8.27
2018-04-01T18:04:06.996Z,10.60
2018-04-01T18:06:33.949Z,8.20
2018-04-01T18:09:00.835Z,9.23
2018-04-01T18:11:27.759Z,9.03
2018-04-01T18:13:54.685Z,9.13
2018-04-01T18:16:21.566Z,7.90
2018-04-01T18:18:48.484Z,11.57
2018-04-01T18:21:15.411Z,8.07
2018-04-01T18:23:42.386Z,9.60
2018-04-01T18:26:09.270Z,9.73
2018-04-01T18:28:36.197Z,14.03
2018-04-01T18:31:03.108Z,14.93
2018-04-01T18:33:29.994Z,10.53
2018-04-01T18:35:56.902Z,11.10
2018-04-01T18:38:23.799Z,10.40
2018-04-01T18:40:50.766Z,10.77
2018-04-01T18:43:17.780Z,7.77
2018-04-01T18:45:44.655Z,9.20
2018-04-01T18:48:11.616Z,8.30
2018-04-01T18:50:38.550Z,7.00
2018-04-01T18:53:05.476Z,8.97
2018-04-01T18:55:32.368Z,6.90
2018-04-01T18:57:59.260Z,10.87
2018-04-01T19:00:26.178Z,8.80
2018-04-01T19:02:53.176Z,8.50
2018-04-01T19:05:20.106Z,8.90
2018-04-01T19:07:46.997Z,11.33
2018-04-01T19:10:13.927Z,9.97
2018-04-01T19:12:40.851Z,9.70
2018-04-01T19:15:08.313Z,11.53
2018-04-01T19:17:35.841Z,9.07
2018-04-01T19:20:03.333Z,6.33
2018-04-01T19:22:30.915Z,8.53
2018-04-01T19:24:58.582Z,10.67
2018-04-01T19:27:26.103Z,12.63
2018-04-01T19:29:53.736Z,8.90
2018-04-01T19:32:23.606Z,11.03
2018-04-01T19:34:51.997Z,11.90
2018-04-01T19:37:19.434Z,11.73
2018-04-01T19:39:46.986Z,10.50
2018-04-01T19:42:14.553Z,13.73
2018-04-01T19:44:42.254Z,12.60
2018-04-01T19:47:09.806Z,11.63
2018-04-01T19:49:37.370Z,11.87
2018-04-01T19:52:04.978Z,10.20
2018-04-01T19:54:32.568Z,12.20
2018-04-01T19:57:00.029Z,12.40
2018-04-01T19:59:27.469Z,11.70
2018-04-01T20:01:54.941Z,13.90
2018-04-01T20:04:22.446Z,11.13
2018-04-01T20:06:49.909Z,13.30
2018-04-01T20:09:17.366Z,14.47
2018-04-01T20:11:44.855Z,9.93
2018-04-01T20:14:12.423Z,14.37
2018-04-01T20:16:39.863Z,12.63
2018-04-01T20:19:07.335Z,13.13
2018-04-01T20:21:34.816Z,12.07
2018-04-01T20:24:02.374Z,13.17
2018-04-01T20:26:29.837Z,12.00
2018-04-01T20:28:57.320Z,12.40
2018-04-01T20:31:24.766Z,13.37
2018-04-01T20:33:52.257Z,10.93
2018-04-01T20:36:19.731Z,12.23
2018-04-01T20:38:47.175Z,11.30
2018-04-01T20:41:14.654Z,12.60
2018-04-01T20:43:42.090Z,12.87
2018-04-01T20:46:09.593Z,14.50
2018-04-01T20:48:37.026Z,12.13
2018-04-01T20:51:04.514Z,13.67
2018-04-01T20:53:32.004Z,12.30
2018-04-01T20:55:59.502Z,15.43
2018-04-01T20:58:26.926Z,11.00
2018-04-01T21:00:54.389Z,10.50
2018-04-01T21:03:21.896Z,12.47
2018-04-01T21:08:23.844Z,13.50
2018-04-01T21:10:51.895Z,12.20
2018-04-01T21:13:19.353Z,12.77
2018-04-01T21:15:46.833Z,12.73
2018-04-01T21:18:14.295Z,12.97
2018-04-01T21:20:41.855Z,11.20
2018-04-01T21:23:09.321Z,13.40
2018-04-01T21:25:36.756Z,10.53
2018-04-01T21:28:04.190Z,13.90
2018-04-01T21:30:31.718Z,10.93
2018-04-01T21:32:59.186Z,11.70
2018-04-01T21:35:26.644Z,12.00
2018-04-01T21:37:55.303Z,13.43
2018-04-01T21:40:22.781Z,11.43
2018-04-01T21:42:50.443Z,10.20
2018-04-01T21:45:18.067Z,24.80
2018-04-01T21:47:45.588Z,40.73
2018-04-01T21:50:13.026Z,18.17
2018-04-01T21:52:40.450Z,12.50
2018-04-01T21:55:08.387Z,11.63
2018-04-01T21:57:37.237Z,11.77
2018-04-01T22:00:05.798Z,14.70
2018-04-01T22:02:33.239Z,10.93
2018-04-01T22:05:00.701Z,10.37
2018-04-01T22:07:28.143Z,10.53
2018-04-01T22:09:55.580Z,12.37
2018-04-01T22:12:23.668Z,13.00
2018-04-01T22:14:51.125Z,11.80
2018-04-01T22:17:18.685Z,10.80
2018-04-01T22:19:46.264Z,12.50
2018-04-01T22:22:13.817Z,12.10
2018-04-01T22:24:41.418Z,13.10
2018-04-01T22:27:09.103Z,15.43
2018-04-01T22:29:36.538Z,11.73
2018-04-01T22:32:03.992Z,12.63
2018-04-01T22:34:31.486Z,12.30
2018-04-01T22:36:58.926Z,11.40
2018-04-01T22:39:26.368Z,11.60
2018-04-01T22:41:53.818Z,11.40
2018-04-01T22:44:21.250Z,13.70
2018-04-01T22:46:48.741Z,18.70
2018-04-01T22:49:16.233Z,12.20
2018-04-01T22:51:43.657Z,14.03
2018-04-01T22:54:11.130Z,13.10
2018-04-01T22:56:38.525Z,14.20
2018-04-01T22:59:05.957Z,14.10
2018-04-01T23:01:33.394Z,13.17
2018-04-01T23:04:00.958Z,13.10
2018-04-01T23:06:28.383Z,13.00
2018-04-01T23:08:55.852Z,13.82
2018-04-01T23:11:23.360Z,12.67
2018-04-01T23:13:50.821Z,12.90
2018-04-01T23:16:18.231Z,11.83
2018-04-01T23:18:45.704Z,14.97
2018-04-01T23:21:13.156Z,12.93
2018-04-01T23:23:40.794Z,12.37
2018-04-01T23:26:08.427Z,18.30
2018-04-01T23:28:35.884Z,16.20
2018-04-01T23:31:03.381Z,17.20
2018-04-01T23:33:30.796Z,14.17
2018-04-01T23:35:58.300Z,13.83
2018-04-01T23:38:25.739Z,13.02
2018-04-01T23:40:53.187Z,16.30
2018-04-01T23:43:20.635Z,15.23
2018-04-01T23:45:48.097Z,18.15
2018-04-01T23:48:15.573Z,13.20
2018-04-01T23:50:43.087Z,14.85
2018-04-01T23:53:10.548Z,12.77
2018-04-01T23:55:38.054Z,13.70
2018-04-01T23:58:05.515Z,13.10
